Time;durP1;ratioP1;P1;durP2;ratioP2;P2;SDS_P1;SDS_P2;PMS_P1;PMS_P2;Temp;Humidity;BMP_temperature;BMP_pressure;BME280_temperature;BME280_humidity;BME280_pressure;Samples;Min_cycle;Max_cycle;Signal;HPM_P1;HPM_P2
2022/11/19 00:00:55;;;;;;;2.43;1.70;;;10.10;59.90;;;;;;5062830;28;20451;-86
2022/11/19 00:03:22;;;;;;;2.33;1.97;;;9.70;59.40;;;;;;5081033;28;20455;-84
2022/11/19 00:05:50;;;;;;;2.40;2.00;;;9.60;61.50;;;;;;5093173;28;20477;-89
2022/11/19 00:08:20;;;;;;;2.93;2.20;;;9.30;62.00;;;;;;5078957;28;20500;-84
2022/11/19 00:10:47;;;;;;;3.27;2.13;;;9.20;61.80;;;;;;5096308;28;20450;-84
2022/11/19 00:13:14;;;;;;;2.90;2.37;;;9.30;61.30;;;;;;5069707;28;20442;-87
2022/11/19 00:15:41;;;;;;;3.50;2.50;;;9.40;60.90;;;;;;5068931;28;20542;-86
2022/11/19 00:18:08;;;;;;;3.27;2.30;;;9.30;60.70;;;;;;5061994;28;20447;-88
2022/11/19 00:20:35;;;;;;;2.40;1.67;;;9.30;61.40;;;;;;5080259;28;20454;-84
2022/11/19 00:23:02;;;;;;;2.50;2.07;;;9.40;60.00;;;;;;5064214;28;20443;-89
2022/11/19 00:25:31;;;;;;;2.50;2.30;;;9.60;61.30;;;;;;5050567;28;20471;-90
2022/11/19 00:27:58;;;;;;;2.67;2.47;;;9.80;61.70;;;;;;5069097;28;20543;-84
2022/11/19 00:30:26;;;;;;;3.70;2.30;;;9.90;60.10;;;;;;5098393;28;20526;-87
2022/11/19 00:32:53;;;;;;;2.50;2.30;;;9.90;60.30;;;;;;5097089;28;20462;-90
2022/11/19 00:35:20;;;;;;;4.27;3.10;;;9.70;59.40;;;;;;5093764;28;20553;-85
2022/11/19 00:37:47;;;;;;;4.30;2.50;;;9.90;60.10;;;;;;5098288;28;21121;-88
2022/11/19 00:40:14;;;;;;;3.50;2.33;;;9.90;60.00;;;;;;5062334;28;20451;-85
2022/11/19 00:43:45;;;;;;;2.50;2.10;;;9.60;59.10;;;;;;5069688;28;20525;-84
2022/11/19 00:45:29;;;;;;;2.77;2.47;;;9.90;60.30;;;;;;5095157;28;20471;-88
2022/11/19 00:47:56;;;;;;;2.90;2.23;;;9.80;59.80;;;;;;5077848;28;20451;-90
2022/11/19 00:50:23;;;;;;;3.47;2.47;;;9.90;59.60;;;;;;5099170;28;20461;-86
2022/11/19 00:52:50;;;;;;;4.17;2.77;;;9.60;58.90;;;;;;5096528;28;20460;-85
2022/11/19 00:55:17;;;;;;;2.40;2.20;;;9.30;60.00;;;;;;5082795;28;20881;-85
2022/11/19 00:57:45;;;;;;;3.70;2.60;;;9.30;61.20;;;;;;5070565;28;20999;-86
2022/11/19 01:00:13;;;;;;;3.30;2.57;;;9.00;60.40;;;;;;5070109;28;20699;-87
2022/11/19 01:02:40;;;;;;;3.50;2.10;;;8.80;61.10;;;;;;5096192;28;20463;-86
2022/11/19 01:05:08;;;;;;;2.87;2.40;;;8.80;61.60;;;;;;5079589;28;20455;-85
2022/11/19 01:07:35;;;;;;;3.13;2.80;;;9.00;62.00;;;;;;5096548;28;20455;-87
2022/11/19 01:10:02;;;;;;;3.00;2.70;;;9.20;60.40;;;;;;5078603;28;20451;-86
2022/11/19 01:12:29;;;;;;;3.77;3.03;;;8.90;59.50;;;;;;5076773;28;20462;-87
2022/11/19 01:14:57;;;;;;;3.70;2.83;;;8.70;60.10;;;;;;5046092;28;20439;-87
2022/11/19 01:17:24;;;;;;;5.77;3.10;;;8.60;61.10;;;;;;5096284;28;20561;-85
2022/11/19 01:19:51;;;;;;;3.50;2.93;;;8.70;61.20;;;;;;5044873;28;20993;-84
2022/11/19 01:22:18;;;;;;;3.20;2.90;;;9.00;61.00;;;;;;5078507;28;20828;-87
2022/11/19 01:24:45;;;;;;;3.73;3.00;;;9.10;61.50;;;;;;5078403;28;20944;-85
2022/11/19 01:27:12;;;;;;;4.83;3.70;;;9.20;59.60;;;;;;5090889;28;20455;-87
2022/11/19 01:29:39;;;;;;;4.43;3.00;;;9.10;58.90;;;;;;5059368;28;20454;-86
2022/11/19 01:32:08;;;;;;;6.93;3.87;;;8.80;59.30;;;;;;5097727;28;20447;-86
2022/11/19 01:34:35;;;;;;;5.33;3.70;;;8.60;59.60;;;;;;5081863;28;20451;-88
2022/11/19 01:37:02;;;;;;;3.93;3.17;;;8.50;60.30;;;;;;5101152;28;20482;-86
2022/11/19 01:39:29;;;;;;;6.63;4.20;;;8.50;59.90;;;;;;5067709;28;20498;-86
2022/11/19 01:41:56;;;;;;;4.50;2.93;;;8.70;61.10;;;;;;5080505;28;20451;-87
2022/11/19 01:45:00;;;;;;;6.47;3.73;;;8.70;59.40;;;;;;5052509;28;20640;-86
2022/11/19 01:47:29;;;;;;;3.93;3.10;;;8.80;60.00;;;;;;5066702;28;20742;-87
2022/11/19 01:49:56;;;;;;;5.30;3.33;;;8.80;59.40;;;;;;5077875;28;20456;-86
2022/11/19 01:52:23;;;;;;;7.90;3.77;;;8.80;59.60;;;;;;5092773;28;20766;-88
2022/11/19 01:54:55;;;;;;;6.60;3.90;;;8.60;59.40;;;;;;5060995;28;20443;-88
2022/11/19 01:57:22;;;;;;;6.57;3.70;;;8.70;59.70;;;;;;5096037;28;20573;-85
2022/11/19 01:59:52;;;;;;;6.30;4.40;;;8.90;59.20;;;;;;5062418;28;21507;-86
2022/11/19 02:02:21;;;;;;;4.47;3.57;;;8.80;59.10;;;;;;5050981;28;20463;-85
2022/11/19 02:04:51;;;;;;;8.23;4.60;;;8.60;59.60;;;;;;5073230;28;20450;-89
2022/11/19 02:07:27;;;;;;;5.67;3.93;;;8.60;59.20;;;;;;5060413;28;20553;-86
2022/11/19 02:09:55;;;;;;;4.80;3.50;;;8.70;58.60;;;;;;5076973;28;20496;-84
2022/11/19 02:12:31;;;;;;;5.80;4.20;;;8.90;59.70;;;;;;5074123;28;20529;-85
2022/11/19 02:15:13;;;;;;;6.83;4.30;;;9.00;59.60;;;;;;5100947;28;20442;-90
2022/11/19 02:17:54;;;;;;;9.50;4.80;;;8.90;57.60;;;;;;5070492;28;20996;-89
2022/11/19 02:20:49;;;;;;;8.87;5.03;;;8.80;58.60;;;;;;5071665;28;20454;-87
2022/11/19 02:23:38;;;;;;;8.20;5.17;;;8.50;59.10;;;;;;5063366;28;20442;-89
2022/11/19 02:26:51;;;;;;;7.40;5.07;;;8.60;59.30;;;;;;5080821;28;20470;-84
2022/11/19 02:29:43;;;;;;;10.20;6.17;;;8.70;57.70;;;;;;5064985;28;20451;-87
2022/11/19 02:32:15;;;;;;;10.87;6.07;;;8.60;58.40;;;;;;5103722;28;20453;-85
2022/11/19 02:34:49;;;;;;;9.03;5.23;;;8.60;58.50;;;;;;5079590;28;20470;-86
2022/11/19 02:37:24;;;;;;;9.87;5.20;;;8.70;59.10;;;;;;5099783;28;20557;-85
2022/11/19 02:39:54;;;;;;;9.73;6.90;;;8.60;58.90;;;;;;5072391;28;20461;-85
2022/11/19 02:42:26;;;;;;;9.83;5.80;;;8.60;58.90;;;;;;5097815;28;20466;-90
2022/11/19 02:44:59;;;;;;;9.97;6.43;;;8.40;57.80;;;;;;5078345;28;20469;-86
2022/11/19 02:47:30;;;;;;;12.30;6.93;;;8.50;59.00;;;;;;5088724;28;20447;-85
2022/11/19 02:50:03;;;;;;;13.57;7.20;;;8.50;57.50;;;;;;5102067;28;20445;-85
2022/11/19 02:52:30;;;;;;;12.93;7.50;;;8.50;59.00;;;;;;5054164;28;20533;-89
2022/11/19 02:54:57;;;;;;;13.47;8.30;;;8.20;58.00;;;;;;5065662;28;20804;-85
2022/11/19 02:57:24;;;;;;;14.50;7.70;;;8.00;58.30;;;;;;5073324;28;20482;-86
2022/11/19 03:05:35;;;;;;;18.07;9.90;;;8.40;58.40;;;;;;5091548;28;20535;-88
2022/11/19 03:08:02;;;;;;;16.33;9.13;;;8.20;58.70;;;;;;5069653;28;20518;-89
2022/11/19 03:10:52;;;;;;;16.37;8.20;;;8.10;58.40;;;;;;5062524;28;20482;-84
2022/11/19 03:19:10;;;;;;;16.90;7.87;;;8.20;58.40;;;;;;5042660;28;20470;-85
2022/11/19 03:21:39;;;;;;;17.20;10.10;;;8.30;58.10;;;;;;5086601;28;20444;-89
2022/11/19 03:24:11;;;;;;;18.60;10.37;;;8.10;57.50;;;;;;5079034;28;20443;-87
2022/11/19 03:26:44;;;;;;;18.10;10.20;;;8.10;59.20;;;;;;5050742;28;20475;-86
2022/11/19 03:29:14;;;;;;;17.97;9.50;;;8.50;60.00;;;;;;5063018;28;20444;-85
2022/11/19 03:31:46;;;;;;;15.47;9.87;;;8.20;57.90;;;;;;5080172;28;20442;-85
2022/11/19 03:34:18;;;;;;;21.10;10.47;;;8.60;59.40;;;;;;5048772;28;20440;-87
2022/11/19 03:36:48;;;;;;;17.60;9.30;;;8.80;57.60;;;;;;5068784;28;20470;-86
2022/11/19 03:39:18;;;;;;;16.50;9.97;;;8.80;57.70;;;;;;5080848;28;20979;-86
2022/11/19 03:41:48;;;;;;;16.53;9.90;;;8.40;56.80;;;;;;5100447;28;20947;-85
2022/11/19 03:44:19;;;;;;;17.53;8.73;;;8.30;57.70;;;;;;5063550;28;20451;-85
2022/11/19 03:46:52;;;;;;;17.50;10.57;;;8.40;57.70;;;;;;5100810;28;20476;-85
2022/11/19 03:49:24;;;;;;;24.17;11.10;;;8.30;57.20;;;;;;5083037;28;20456;-87
2022/11/19 03:51:56;;;;;;;17.23;10.30;;;8.30;57.90;;;;;;5063251;28;20454;-86
2022/11/19 03:54:23;;;;;;;19.50;10.70;;;8.10;57.90;;;;;;5086893;28;20569;-87
2022/11/19 03:56:51;;;;;;;21.03;10.60;;;8.00;57.90;;;;;;5097273;28;20492;-89
2022/11/19 03:59:18;;;;;;;22.63;12.07;;;7.90;58.20;;;;;;5076015;28;21076;-86
2022/11/19 04:01:50;;;;;;;20.10;11.10;;;8.00;59.60;;;;;;5097930;28;20555;-85
2022/11/19 04:07:01;;;;;;;20.90;11.33;;;7.90;58.40;;;;;;5097364;28;20456;-87
2022/11/19 04:09:28;;;;;;;20.77;10.43;;;7.70;57.90;;;;;;5077199;28;20987;-85
2022/11/19 04:11:56;;;;;;;28.57;11.70;;;7.80;58.60;;;;;;5085637;28;20459;-88
2022/11/19 04:14:23;;;;;;;21.80;12.90;;;7.90;58.70;;;;;;5077247;28;21033;-86
2022/11/19 04:16:51;;;;;;;25.37;11.77;;;7.90;58.50;;;;;;5095605;28;20489;-90
2022/11/19 04:19:18;;;;;;;22.17;11.67;;;7.90;58.70;;;;;;5082661;28;20453;-86
2022/11/19 04:21:45;;;;;;;24.07;11.07;;;7.60;58.70;;;;;;5096368;28;20874;-85
2022/11/19 04:24:12;;;;;;;20.60;11.63;;;7.70;58.70;;;;;;5080467;28;20969;-87
2022/11/19 04:26:39;;;;;;;20.10;10.40;;;7.90;59.40;;;;;;5096254;28;20471;-85
2022/11/19 04:29:06;;;;;;;21.13;11.33;;;7.70;57.70;;;;;;5051215;28;20446;-89
2022/11/19 04:31:33;;;;;;;21.90;12.37;;;7.80;59.00;;;;;;5076868;28;20432;-86
2022/11/19 04:34:01;;;;;;;24.80;12.00;;;7.90;59.50;;;;;;5050854;28;20478;-85
2022/11/19 04:36:28;;;;;;;21.13;11.90;;;8.00;59.10;;;;;;5067654;28;21007;-87
2022/11/19 04:38:55;;;;;;;24.70;14.27;;;8.00;59.10;;;;;;5093131;28;20811;-88
2022/11/19 04:41:22;;;;;;;25.17;12.77;;;8.10;59.30;;;;;;5098047;28;20821;-85
2022/11/19 04:43:49;;;;;;;24.63;12.20;;;8.20;58.80;;;;;;5076145;28;22769;-89
2022/11/19 04:46:16;;;;;;;26.40;11.83;;;8.40;59.40;;;;;;5078462;28;20554;-86
2022/11/19 04:48:43;;;;;;;21.70;12.27;;;8.30;57.50;;;;;;5074510;28;20836;-85
2022/11/19 04:51:12;;;;;;;23.83;12.20;;;8.10;58.00;;;;;;5096789;28;20520;-88
2022/11/19 04:53:39;;;;;;;22.27;11.47;;;8.00;58.30;;;;;;5089371;28;20460;-85
2022/11/19 04:56:07;;;;;;;23.87;11.80;;;7.90;58.30;;;;;;5079297;28;20466;-87
2022/11/19 04:58:34;;;;;;;20.90;12.23;;;8.00;59.30;;;;;;5051628;28;20463;-87
2022/11/19 05:01:01;;;;;;;25.53;12.53;;;8.20;59.40;;;;;;5099452;28;20532;-85
2022/11/19 05:03:28;;;;;;;24.40;13.07;;;8.40;59.20;;;;;;5062404;28;20496;-88
2022/11/19 05:05:55;;;;;;;26.00;12.80;;;8.30;58.00;;;;;;5092619;28;20952;-88
2022/11/19 05:08:23;;;;;;;25.40;12.97;;;8.30;58.20;;;;;;5065978;28;20455;-85
2022/11/19 05:10:50;;;;;;;26.50;14.47;;;8.20;58.00;;;;;;5086102;28;20451;-91
2022/11/19 05:13:17;;;;;;;27.00;14.40;;;8.10;58.60;;;;;;5064355;28;20542;-87
2022/11/19 05:15:44;;;;;;;24.47;13.67;;;8.20;58.70;;;;;;5076660;28;20506;-89
2022/11/19 05:18:12;;;;;;;28.70;12.50;;;8.20;57.90;;;;;;5061084;28;20815;-86
2022/11/19 05:20:39;;;;;;;23.13;14.03;;;8.00;57.80;;;;;;5058978;28;20520;-85
2022/11/19 05:23:07;;;;;;;26.17;10.93;;;7.80;57.80;;;;;;5075773;28;20443;-86
2022/11/19 05:25:35;;;;;;;21.37;12.27;;;8.00;58.30;;;;;;5061285;28;20472;-88
2022/11/19 05:28:02;;;;;;;22.03;12.07;;;8.10;58.20;;;;;;5086127;28;20451;-86
2022/11/19 05:30:29;;;;;;;24.13;12.13;;;8.00;58.20;;;;;;5097785;28;20576;-89
2022/11/19 05:32:56;;;;;;;21.33;11.30;;;8.10;58.60;;;;;;5068529;28;20530;-88
2022/11/19 05:35:23;;;;;;;21.47;11.53;;;7.90;57.80;;;;;;5081010;28;20546;-92
2022/11/19 05:37:51;;;;;;;20.87;11.20;;;7.80;58.30;;;;;;5074857;28;20450;-86
2022/11/19 05:40:18;;;;;;;20.20;10.43;;;7.70;57.80;;;;;;5079604;28;20513;-88
2022/11/19 05:42:47;;;;;;;23.93;12.60;;;7.80;58.40;;;;;;5063107;28;20531;-86
2022/11/19 05:45:14;;;;;;;20.10;11.83;;;7.60;57.80;;;;;;5096367;28;20507;-91
2022/11/19 05:47:41;;;;;;;19.00;11.70;;;7.70;59.00;;;;;;5103326;28;20574;-86
2022/11/19 05:50:09;;;;;;;30.57;15.87;;;7.70;59.10;;;;;;5069099;28;20477;-87
2022/11/19 05:52:36;;;;;;;26.67;12.63;;;7.50;58.10;;;;;;5097987;28;20528;-87
2022/11/19 05:55:04;;;;;;;29.80;16.20;;;7.50;58.30;;;;;;5078056;28;20487;-86
2022/11/19 05:57:31;;;;;;;32.60;15.70;;;7.40;58.20;;;;;;5087701;28;20444;-87
2022/11/19 05:59:59;;;;;;;21.00;12.80;;;7.10;58.20;;;;;;5068746;28;20596;-85
2022/11/19 06:02:26;;;;;;;43.70;20.93;;;7.20;59.10;;;;;;5071607;28;20523;-86
2022/11/19 06:04:54;;;;;;;36.90;19.83;;;7.20;58.60;;;;;;5082532;28;20548;-87
2022/11/19 06:07:21;;;;;;;24.13;13.80;;;7.40;59.90;;;;;;5103595;28;20566;-86
2022/11/19 06:09:48;;;;;;;27.30;13.70;;;7.50;59.30;;;;;;5082116;28;20573;-84
2022/11/19 06:12:15;;;;;;;50.17;26.80;;;7.50;58.50;;;;;;5086490;28;20438;-84
2022/11/19 06:14:42;;;;;;;127.60;65.87;;;7.80;58.90;;;;;;5064235;28;20459;-86
2022/11/19 06:17:14;;;;;;;29.83;17.67;;;7.80;58.00;;;;;;5072582;28;20477;-86
2022/11/19 06:19:41;;;;;;;21.70;11.30;;;7.80;58.00;;;;;;5106588;28;20435;-86
2022/11/19 06:22:08;;;;;;;24.57;13.20;;;7.70;58.20;;;;;;5069626;28;21021;-85
2022/11/19 06:24:36;;;;;;;21.40;11.23;;;7.90;58.70;;;;;;5088341;28;20447;-86
2022/11/19 06:27:03;;;;;;;27.77;12.43;;;7.90;58.10;;;;;;5072031;28;20473;-85
2022/11/19 06:29:30;;;;;;;27.43;12.77;;;7.90;58.70;;;;;;5085095;28;20556;-89
2022/11/19 06:31:57;;;;;;;25.80;11.93;;;8.00;58.80;;;;;;5078568;28;20466;-86
2022/11/19 06:34:25;;;;;;;34.67;16.40;;;8.00;59.00;;;;;;5081856;28;20453;-86
2022/11/19 06:36:52;;;;;;;30.53;18.20;;;7.90;58.70;;;;;;5067781;28;20563;-90
2022/11/19 06:39:19;;;;;;;29.17;16.33;;;7.90;58.10;;;;;;5075707;28;20443;-85
2022/11/19 06:41:47;;;;;;;34.87;17.63;;;7.80;58.40;;;;;;5099825;28;21040;-86
2022/11/19 06:44:14;;;;;;;31.37;15.90;;;7.90;58.50;;;;;;5099633;28;21056;-86
2022/11/19 06:46:41;;;;;;;28.03;16.57;;;7.80;58.40;;;;;;5058646;28;20472;-87
2022/11/19 06:49:08;;;;;;;22.10;13.00;;;7.80;58.10;;;;;;5078201;28;20458;-88
2022/11/19 06:51:37;;;;;;;19.40;10.33;;;7.70;58.20;;;;;;5080745;28;20470;-86
2022/11/19 06:54:04;;;;;;;27.20;15.13;;;7.80;58.00;;;;;;5080681;28;20866;-85
2022/11/19 06:56:31;;;;;;;34.40;19.43;;;7.90;58.80;;;;;;5060508;28;20471;-86
2022/11/19 06:58:58;;;;;;;27.70;14.60;;;7.90;58.70;;;;;;5092418;28;20463;-88
2022/11/19 07:01:25;;;;;;;21.50;11.50;;;7.90;58.50;;;;;;5094115;28;21144;-85
2022/11/19 07:03:52;;;;;;;25.97;15.57;;;7.60;57.80;;;;;;5057866;28;20708;-90
2022/11/19 07:06:19;;;;;;;30.90;16.97;;;7.80;58.70;;;;;;5097115;28;20479;-87
2022/11/19 07:08:47;;;;;;;38.00;21.23;;;7.90;58.40;;;;;;5072106;28;20447;-89
2022/11/19 07:11:26;;;;;;;32.93;14.37;;;7.90;58.00;;;;;;5077152;28;20446;-86
2022/11/19 07:13:58;;;;;;;25.10;12.60;;;7.80;57.70;;;;;;5062053;28;21128;-90
2022/11/19 07:16:27;;;;;;;31.37;19.30;;;7.60;57.80;;;;;;5065254;28;20469;-88
2022/11/19 07:18:56;;;;;;;26.90;17.53;;;7.70;59.40;;;;;;5067282;28;20462;-86
2022/11/19 07:21:24;;;;;;;22.10;13.00;;;7.90;59.00;;;;;;5081150;28;20454;-85
2022/11/19 07:23:52;;;;;;;24.63;13.70;;;7.80;58.20;;;;;;5050630;28;20462;-88
2022/11/19 07:26:19;;;;;;;23.30;14.67;;;7.80;58.30;;;;;;5099436;28;20474;-86
2022/11/19 07:28:46;;;;;;;30.17;14.27;;;7.90;58.00;;;;;;5096300;28;20447;-84
2022/11/19 07:31:13;;;;;;;28.20;15.10;;;7.90;58.40;;;;;;5061331;28;20454;-85
2022/11/19 07:33:41;;;;;;;24.63;13.37;;;7.90;57.90;;;;;;5079859;28;20656;-87
2022/11/19 07:36:10;;;;;;;23.03;11.47;;;7.80;57.60;;;;;;5083287;28;20509;-86
2022/11/19 07:38:37;;;;;;;22.83;12.90;;;7.40;57.40;;;;;;5099189;28;20531;-85
2022/11/19 07:42:47;;;;;;;24.20;12.60;;;7.50;58.50;;;;;;5097667;28;20439;-86
2022/11/19 07:43:53;;;;;;;22.60;13.27;;;7.60;59.20;;;;;;5100659;28;20443;-88
2022/11/19 07:46:20;;;;;;;18.20;10.27;;;7.90;59.00;;;;;;5097637;28;20471;-89
2022/11/19 07:48:47;;;;;;;22.27;11.60;;;7.70;57.80;;;;;;5070934;28;20485;-86
2022/11/19 07:51:14;;;;;;;19.93;10.60;;;7.80;58.20;;;;;;5076255;28;20454;-87
2022/11/19 07:53:42;;;;;;;20.97;9.27;;;7.40;57.80;;;;;;5081519;28;20463;-86
2022/11/19 07:56:10;;;;;;;26.53;12.20;;;7.10;58.90;;;;;;5082487;28;20529;-84
2022/11/19 07:58:37;;;;;;;21.27;9.13;;;7.20;59.40;;;;;;5081049;28;20531;-84
2022/11/19 08:01:08;;;;;;;34.53;20.40;;;7.40;59.70;;;;;;5083065;28;20450;-84
2022/11/19 08:03:35;;;;;;;27.87;13.50;;;7.70;58.60;;;;;;5082774;28;20937;-86
2022/11/19 08:06:03;;;;;;;44.40;32.00;;;7.70;58.60;;;;;;5061783;28;20466;-83
2022/11/19 08:08:30;;;;;;;33.57;22.57;;;7.70;58.70;;;;;;5062439;28;20498;-85
2022/11/19 08:10:58;;;;;;;55.73;34.70;;;7.60;58.10;;;;;;5088871;28;20449;-85
2022/11/19 08:13:27;;;;;;;60.53;43.23;;;7.60;58.10;;;;;;5098410;28;20452;-84
2022/11/19 08:15:59;;;;;;;24.50;12.20;;;7.70;59.00;;;;;;5079886;28;20984;-85
2022/11/19 08:18:25;;;;;;;27.20;16.70;;;7.70;59.40;;;;;;5077766;28;20956;-85
2022/11/19 08:20:52;;;;;;;21.27;11.53;;;7.70;58.90;;;;;;5084600;28;20450;-84
2022/11/19 08:23:19;;;;;;;23.47;11.40;;;7.70;58.40;;;;;;5064330;28;20452;-87
2022/11/19 08:25:47;;;;;;;20.83;11.93;;;7.70;58.90;;;;;;5099181;28;20483;-85
2022/11/19 08:28:14;;;;;;;59.73;37.63;;;7.70;59.10;;;;;;5097105;28;20474;-87
2022/11/19 08:30:44;;;;;;;20.57;12.40;;;7.60;59.20;;;;;;5079182;28;20443;-84
2022/11/19 08:33:11;;;;;;;34.03;21.73;;;7.70;58.80;;;;;;5062021;28;20786;-85
2022/11/19 08:35:38;;;;;;;20.40;11.90;;;7.40;58.70;;;;;;5095506;28;20991;-84
2022/11/19 08:38:05;;;;;;;23.10;13.20;;;7.50;59.60;;;;;;5083222;28;20455;-84
2022/11/19 08:40:32;;;;;;;24.13;11.37;;;7.20;58.60;;;;;;5101303;28;20441;-87
2022/11/19 08:43:01;;;;;;;21.63;12.10;;;7.30;59.80;;;;;;5074869;28;20454;-85
2022/11/19 08:45:29;;;;;;;18.03;10.13;;;7.50;59.30;;;;;;5084915;28;20473;-83
2022/11/19 08:47:59;;;;;;;19.00;10.20;;;7.60;58.80;;;;;;5095848;28;20474;-85
2022/11/19 08:50:26;;;;;;;20.20;10.67;;;7.30;58.40;;;;;;5077838;28;20955;-85
2022/11/19 08:52:57;;;;;;;20.40;10.67;;;7.20;58.70;;;;;;5078951;28;20537;-84
2022/11/19 08:55:25;;;;;;;20.33;9.10;;;7.10;59.90;;;;;;5062009;28;20459;-85
2022/11/19 08:57:52;;;;;;;19.93;9.33;;;7.20;60.40;;;;;;5077367;28;20435;-85
2022/11/19 09:00:20;;;;;;;22.70;11.87;;;7.30;60.20;;;;;;5061478;28;20458;-87
2022/11/19 09:02:47;;;;;;;21.90;12.67;;;7.50;60.80;;;;;;5087272;28;20489;-86
2022/11/19 09:05:15;;;;;;;17.37;11.43;;;7.50;60.00;;;;;;5067498;28;20870;-85
2022/11/19 09:07:42;;;;;;;19.90;9.33;;;7.60;59.20;;;;;;5081089;28;20471;-85
2022/11/19 09:10:10;;;;;;;20.23;10.47;;;7.80;58.30;;;;;;5099642;28;20439;-86
2022/11/19 09:12:37;;;;;;;18.07;9.20;;;7.60;58.20;;;;;;5085588;28;20443;-85
2022/11/19 09:15:05;;;;;;;17.80;10.37;;;7.50;58.90;;;;;;5099487;28;20993;-87
2022/11/19 09:17:32;;;;;;;18.13;9.60;;;7.20;59.40;;;;;;5063863;28;20563;-87
2022/11/19 09:19:59;;;;;;;20.63;10.80;;;7.10;59.40;;;;;;5085924;28;20465;-86
2022/11/19 09:22:30;;;;;;;15.00;9.60;;;7.20;60.40;;;;;;5104625;28;20452;-85
2022/11/19 09:24:57;;;;;;;17.83;10.30;;;7.30;60.30;;;;;;5056834;28;20455;-87
2022/11/19 09:27:24;;;;;;;18.23;9.23;;;7.50;60.30;;;;;;5097257;28;21069;-87
2022/11/19 09:29:51;;;;;;;17.97;10.70;;;7.60;59.60;;;;;;5100973;28;20949;-87
2022/11/19 09:32:18;;;;;;;16.10;11.20;;;7.70;59.50;;;;;;5082625;28;20512;-90
2022/11/19 09:34:45;;;;;;;19.23;10.43;;;7.60;58.90;;;;;;5082885;28;20567;-85
2022/11/19 09:37:12;;;;;;;22.17;10.20;;;7.70;58.90;;;;;;5107821;28;20462;-90
2022/11/19 09:39:40;;;;;;;20.83;11.33;;;7.90;59.00;;;;;;5083462;28;20526;-88
2022/11/19 09:42:16;;;;;;;18.77;11.20;;;7.80;57.90;;;;;;5105173;27;20534;-87
2022/11/19 09:44:59;;;;;;;20.73;11.80;;;7.80;58.40;;;;;;5057849;28;20454;-84
2022/11/19 09:47:40;;;;;;;22.33;12.80;;;7.50;58.30;;;;;;5082259;28;21085;-85
2022/11/19 09:50:15;;;;;;;20.07;11.73;;;7.50;59.30;;;;;;5101270;28;20442;-85
2022/11/19 09:52:46;;;;;;;18.63;10.60;;;7.30;59.30;;;;;;5055243;28;20472;-86
2022/11/19 09:55:23;;;;;;;16.87;9.80;;;7.20;59.00;;;;;;5086508;28;20442;-85
2022/11/19 09:57:53;;;;;;;21.67;10.50;;;7.20;58.70;;;;;;5103383;28;20493;-84
2022/11/19 10:00:23;;;;;;;16.60;9.77;;;7.40;59.60;;;;;;5084514;28;20451;-84
2022/11/19 10:02:50;;;;;;;23.87;9.90;;;7.40;58.60;;;;;;5082753;28;20463;-84
2022/11/19 10:05:29;;;;;;;19.80;11.63;;;7.40;59.00;;;;;;5072790;28;20859;-85
2022/11/19 10:08:07;;;;;;;18.17;9.50;;;7.50;58.70;;;;;;5101283;28;20542;-85
2022/11/19 10:10:42;;;;;;;21.33;10.23;;;7.40;58.80;;;;;;5068290;28;20459;-84
2022/11/19 10:13:32;;;;;;;15.77;8.93;;;7.70;59.00;;;;;;5105683;28;20550;-84
2022/11/19 10:16:17;;;;;;;19.23;10.00;;;7.80;58.80;;;;;;5069870;28;20463;-85
2022/11/19 10:18:56;;;;;;;20.33;9.73;;;7.90;58.80;;;;;;5085677;28;20471;-86
2022/11/19 10:21:29;;;;;;;18.20;10.57;;;7.60;58.00;;;;;;5072675;28;20461;-85
2022/11/19 10:24:03;;;;;;;20.83;12.13;;;7.50;58.60;;;;;;5084663;28;20871;-87
2022/11/19 10:26:35;;;;;;;19.57;10.53;;;7.50;58.60;;;;;;5099529;28;20557;-86
2022/11/19 10:29:09;;;;;;;19.30;11.00;;;7.50;58.70;;;;;;5052741;28;20486;-87
2022/11/19 10:31:39;;;;;;;23.57;12.47;;;7.60;58.60;;;;;;5060743;28;20493;-87
2022/11/19 10:34:14;;;;;;;29.53;13.70;;;7.50;58.00;;;;;;5061467;28;20478;-91
2022/11/19 10:36:44;;;;;;;28.00;12.10;;;7.40;58.60;;;;;;5052963;28;20564;-86
2022/11/19 10:39:18;;;;;;;22.77;12.50;;;7.30;59.50;;;;;;5068225;28;20441;-94
2022/11/19 10:41:53;;;;;;;21.57;11.27;;;7.40;59.10;;;;;;5078713;28;20448;-85
2022/11/19 10:44:39;;;;;;;20.07;12.03;;;7.40;59.10;;;;;;5081204;28;20478;-90
2022/11/19 10:47:09;;;;;;;26.10;14.97;;;7.30;59.00;;;;;;5099386;28;20474;-84
2022/11/19 10:49:40;;;;;;;28.23;15.13;;;7.40;59.80;;;;;;5079872;28;20475;-85
2022/11/19 10:52:24;;;;;;;23.63;13.00;;;7.50;59.90;;;;;;5095459;28;20979;-86
2022/11/19 10:54:55;;;;;;;23.67;12.43;;;7.60;58.90;;;;;;5068351;28;20552;-86
2022/11/19 10:57:24;;;;;;;27.30;16.53;;;7.70;59.10;;;;;;5074396;28;20482;-86
2022/11/19 10:59:53;;;;;;;24.00;12.93;;;7.60;59.50;;;;;;5066777;28;20458;-87
2022/11/19 11:02:29;;;;;;;51.90;25.00;;;7.70;58.90;;;;;;5079276;28;20450;-87
2022/11/19 11:05:04;;;;;;;32.03;16.00;;;7.70;58.80;;;;;;5078090;28;20450;-89
2022/11/19 11:07:50;;;;;;;35.47;19.07;;;7.70;59.20;;;;;;5090233;28;20540;-85
2022/11/19 11:10:35;;;;;;;28.97;17.13;;;7.60;58.70;;;;;;5067487;28;20668;-86
2022/11/19 11:16:13;;;;;;;25.67;12.77;;;7.30;58.60;;;;;;5086088;28;20790;-90
2022/11/19 11:18:41;;;;;;;23.13;13.40;;;7.20;58.80;;;;;;5080516;28;20875;-87
2022/11/19 11:21:12;;;;;;;31.60;18.40;;;7.20;58.90;;;;;;5079751;28;20530;-89
2022/11/19 11:23:49;;;;;;;27.27;13.13;;;7.10;59.30;;;;;;5078240;28;20452;-85
2022/11/19 11:26:23;;;;;;;21.10;10.50;;;7.20;59.30;;;;;;5088012;28;20529;-89
2022/11/19 11:29:01;;;;;;;26.27;12.10;;;6.80;59.30;;;;;;5067518;28;20475;-85
2022/11/19 11:31:34;;;;;;;23.03;12.40;;;6.60;60.60;;;;;;5077501;28;20467;-85
2022/11/19 11:34:02;;;;;;;21.77;13.20;;;6.80;61.20;;;;;;5081083;28;20480;-87
2022/11/19 11:36:31;;;;;;;26.50;13.83;;;6.80;61.60;;;;;;5098216;28;20844;-85
2022/11/19 11:39:01;;;;;;;22.80;12.40;;;7.20;60.90;;;;;;5065560;28;20984;-85
2022/11/19 11:41:40;;;;;;;25.23;12.93;;;7.30;60.60;;;;;;5088666;28;20872;-84
2022/11/19 11:44:18;;;;;;;24.90;12.40;;;7.50;60.20;;;;;;5088690;28;20461;-85
2022/11/19 11:46:46;;;;;;;25.67;12.20;;;7.50;59.40;;;;;;5101888;28;20468;-86
2022/11/19 11:49:26;;;;;;;23.27;12.97;;;7.60;59.50;;;;;;5086407;28;20507;-86
2022/11/19 11:52:16;;;;;;;21.77;11.63;;;7.60;59.50;;;;;;5081039;28;20447;-87
2022/11/19 11:55:01;;;;;;;26.10;13.10;;;7.80;59.20;;;;;;5101945;28;20455;-86
2022/11/19 11:57:31;;;;;;;22.20;12.23;;;7.90;58.70;;;;;;5066720;28;21029;-85
2022/11/19 12:00:01;;;;;;;22.80;12.30;;;7.70;58.90;;;;;;5096829;28;20949;-86
2022/11/19 12:02:33;;;;;;;27.43;11.60;;;7.70;58.70;;;;;;5084167;28;20439;-85
2022/11/19 12:05:02;;;;;;;19.93;11.67;;;7.50;58.50;;;;;;5067954;28;20444;-88
2022/11/19 12:07:58;;;;;;;21.03;11.73;;;7.50;59.20;;;;;;5079712;28;20474;-89
2022/11/19 12:10:29;;;;;;;22.90;12.47;;;7.40;59.70;;;;;;5069574;28;20514;-85
2022/11/19 12:13:30;;;;;;;27.73;14.87;;;7.50;59.50;;;;;;5064032;28;20439;-85
2022/11/19 12:16:07;;;;;;;32.23;15.00;;;7.70;59.10;;;;;;5095946;28;21175;-86
2022/11/19 12:18:41;;;;;;;32.77;16.00;;;7.70;59.60;;;;;;5094547;28;20805;-88
2022/11/19 12:21:10;;;;;;;31.20;17.90;;;7.60;58.30;;;;;;5048528;28;20511;-86
2022/11/19 12:23:52;;;;;;;24.70;12.87;;;7.40;57.50;;;;;;5068593;28;20457;-87
2022/11/19 12:26:28;;;;;;;20.30;12.83;;;7.50;58.80;;;;;;5079877;28;21069;-84
2022/11/19 12:29:06;;;;;;;22.23;11.30;;;7.60;58.90;;;;;;5096329;28;20470;-89
2022/11/19 12:32:00;;;;;;;22.90;11.53;;;7.30;58.00;;;;;;5076780;28;20826;-85
2022/11/19 12:34:42;;;;;;;29.50;15.97;;;7.20;58.00;;;;;;5078643;28;20533;-87
2022/11/19 12:37:21;;;;;;;18.13;10.57;;;6.90;58.80;;;;;;5066241;28;20857;-86
2022/11/19 12:39:54;;;;;;;21.50;11.87;;;6.90;58.70;;;;;;5078993;28;20991;-86
2022/11/19 12:42:33;;;;;;;19.70;10.37;;;6.90;59.60;;;;;;5068435;28;20451;-86
2022/11/19 12:45:09;;;;;;;22.77;12.53;;;7.10;59.20;;;;;;5077900;28;20483;-85
2022/11/19 12:47:54;;;;;;;22.43;12.97;;;7.30;59.90;;;;;;5067020;28;20463;-84
2022/11/19 12:50:25;;;;;;;21.47;11.97;;;7.30;59.50;;;;;;5064438;28;20463;-84
2022/11/19 12:53:08;;;;;;;22.87;11.63;;;7.40;58.50;;;;;;5065137;28;20529;-86
2022/11/19 12:55:44;;;;;;;19.27;11.43;;;7.20;58.00;;;;;;5077405;28;21288;-88
2022/11/19 12:58:22;;;;;;;21.33;10.70;;;7.10;58.90;;;;;;5046612;28;21040;-87
2022/11/19 13:00:55;;;;;;;19.03;10.40;;;7.20;59.10;;;;;;5069232;28;20455;-84
2022/11/19 13:03:36;;;;;;;19.83;11.40;;;7.20;58.50;;;;;;5068164;28;20451;-89
2022/11/19 13:06:10;;;;;;;20.50;10.10;;;7.00;58.40;;;;;;5077075;28;21063;-87
2022/11/19 13:08:41;;;;;;;24.23;11.73;;;7.10;59.50;;;;;;5062727;28;20451;-86
2022/11/19 13:11:13;;;;;;;26.77;14.40;;;7.40;60.10;;;;;;5079207;28;20546;-88
2022/11/19 13:13:43;;;;;;;26.37;14.60;;;7.40;58.30;;;;;;5082024;28;20554;-84
2022/11/19 13:16:13;;;;;;;27.70;12.70;;;7.40;59.20;;;;;;5079854;28;20525;-87
2022/11/19 13:18:45;;;;;;;20.80;11.97;;;7.30;59.30;;;;;;5100876;28;20463;-88